Last 100 IPOs

Company Symbol Industry Offer Date Shares (millions) Offer Price 1st Day Close Current Price Return SCOOP Rating
Appian APPN Technology 5/25/2017 6.3 $12.00 $15.01 $17.11 42.58% S/O
WideOpenWest WOW Telecommunications 5/25/2017 18.2 $17.00 $16.50 $17.55 3.24% S/O
SMART Global Holdings SGH Technology 5/24/2017 5.3 $11.00 $13.45 $13.23 20.27% S/O
Bright Scholar Education Holdings BEDU Consumer Services 5/18/2017 15.0 $10.50 $13.40 $11.32 7.81% S/O
G1 Therapeutics GTHX Health Care 5/17/2017 7.0 $15.00 $15.00 $17.24 14.93% S/O
A.S.V. ASV Industrials 5/12/2017 3.8 $7.00 $7.85 $8.07 15.29% S/O
Gardner Denver Holdings GDI Consumer Goods 5/12/2017 41.3 $20.00 $21.10 $23.03 15.15% S/O
Solaris Oilfield Infrastructure SOI Oil & Gas 5/12/2017 10.1 $12.00 $11.55 $11.98 -0.17% S/O
Veritone VERI Technology 5/12/2017 2.5 $15.00 $13.07 $13.79 -8.07% S/O
Five Point Holdings FPH Financials 5/10/2017 21.0 $14.00 $15.04 $15.72 12.29% S/O
Guaranty Bancshares GNTY Financials 5/9/2017 2.0 $27.00 $30.10 $30.96 14.67% S/O
KKR Real Estate Finance Trust KREF Financials 5/5/2017 10.3 $20.50 $22.13 $22.80 11.22% S/O
Ovid Therapeutics OVID Health Care 5/5/2017 5.0 $15.00 $12.25 $14.48 -3.47% S/O
Antero Resources Midstream Management AMGP Oil & Gas 5/4/2017 37.3 $23.50 $22.00 $21.97 -6.51% S/O
Biohaven Pharmaceutical Holding BHVN Health Care 5/4/2017 9.9 $17.00 $17.50 $23.79 39.94% S/O
UroGen Pharma Ltd. URGN Health Care 5/4/2017 4.5 $13.00 $13.98 $18.48 42.15% S/O
Carvana CVNA Consumer Services 4/28/2017 15.0 $15.00 $11.10 $10.73 -28.47% S/O
China Rapid Finance Limited XRF Financials 4/28/2017 10.0 $6.00 $6.40 $7.07 17.83% S/O
Cloudera CLDR Technology 4/28/2017 15.0 $15.00 $18.10 $22.29 48.60% S/O
Emerald Expositions Events EEX Consumer Services 4/28/2017 15.5 $17.00 $19.50 $21.50 26.47% S/O
NCS Multistage Holdings NCSM Oil & Gas 4/28/2017 9.5 $17.00 $19.50 $27.04 59.06% S/O
Zymeworks ZYME Health Care 4/28/2017 4.5 $13.00 $13.00 $12.59 -3.15% S/O
Floor & Decor Holdings FND Consumer Goods 4/27/2017 8.8 $21.00 $32.05 $42.38 101.81% S/O
Select Energy Services WTTR Oil & Gas 4/21/2017 8.7 $14.00 $14.02 $15.90 13.57% S/O
Cadence Bancorporation CADE Financials 4/13/2017 7.5 $20.00 $0.00 $22.29 11.45% S/O
Tocagen TOCA Health Care 4/13/2017 8.5 $10.00 $12.45 $16.32 63.20% S/O
Warrior Met Coal HCC Basic Materials 4/13/2017 16.7 $19.00 $18.00 $17.12 -9.89% S/O
Yext YEXT Technology 4/13/2017 10.5 $11.00 $13.41 $13.75 25.00% S/O
Netshoes (Cayman) Ltd. NETS Consumer Goods 4/12/2017 8.3 $18.00 $16.10 $24.41 35.61% S/O
Azul S.A. AZUL Consumer Services 4/11/2017 28.5 $20.06 $21.50 $23.32 16.25% S/O
Okta OKTA Technology 4/7/2017 11.0 $17.00 $23.51 $25.99 52.88% S/O
Elevate Credit ELVT Financials 4/6/2017 12.4 $6.50 $7.76 $7.19 10.62% S/O
Schneider National SNDR Industrials 4/6/2017 29.0 $19.00 $19.00 $19.61 3.21% S/O
Hess Midstream Partners LP HESM Oil & Gas 4/5/2017 14.8 $23.00 $25.60 $24.14 4.96% S/O
Alteryx AYX Technology 3/24/2017 9.0 $14.00 $15.50 $19.83 41.64% S/O
MuleSoft MULE Technology 3/17/2017 13.0 $17.00 $24.75 $28.38 66.94% S/O
ProPetro Holding PUMP Oil & Gas 3/17/2017 25.0 $14.00 $14.50 $13.71 -2.07% S/O
Canada Goose Holdings GOOS Consumer Goods 3/16/2017 20.0 $12.78 $16.08 $18.01 40.92% S/O
Ardagh Group S.A. ARD Industrials 3/15/2017 16.2 $19.00 $22.91 $22.94 20.74% S/O
Presidio, Inc. PSDO Technology 3/10/2017 16.7 $14.00 $14.25 $14.87 6.21% S/O
BeyondSpring BYSI Health Care 3/9/2017 0.2 $20.00 $16.80 $31.67 58.35% S/O
J.Jill JILL Consumer Goods 3/9/2017 11.7 $13.00 $12.65 $11.30 -13.08% S/O
Snap SNAP Technology 3/2/2017 200.0 $17.00 $24.48 $21.22 24.82% S/O
Hamilton Lane HLNE Financials 3/1/2017 11.9 $16.00 $18.02 $20.45 27.81% S/O
Clipper Realty CLPR Financials 2/10/2017 5.7 $13.50 $13.50 $10.91 -19.19% S/O
Foundation Building Materials FBM Consumer Services 2/10/2017 12.8 $14.00 $15.50 $14.00 0.00% S/O
Sachem Capital SACH Financials 2/10/2017 2.6 $5.00 $5.04 $5.00 0.00% S/O
Kimbell Royalty Partners, LP KRP Oil & Gas 2/3/2017 5.0 $18.00 $20.64 $19.85 10.28% S/O
Ramaco Resources METC Basic Materials 2/3/2017 6.0 $13.50 $13.55 $6.57 -51.33% S/O
Invitation Homes INVH Financials 2/1/2017 77.0 $20.00 $20.00 $21.20 6.00% S/O
Laureate Education LAUR Consumer Services 2/1/2017 35.0 $14.00 $13.25 $16.43 17.36% S/O
Jagged Peak Energy JAG Oil & Gas 1/27/2017 31.6 $15.00 $14.33 $13.94 -7.07% S/O
JELD-WEN Holding JELD Basic Materials 1/27/2017 25.0 $23.00 $26.12 $30.83 34.04% S/O
Jounce Therapeutics JNCE Health Care 1/27/2017 6.5 $16.00 $17.25 $21.17 32.31% S/O
REV Group REVG Consumer Goods 1/27/2017 12.5 $22.00 $25.00 $28.43 29.23% S/O
AnaptysBio ANAB Health Care 1/26/2017 5.0 $15.00 $17.00 $25.70 71.33% S/O
ObsEva SA OBSV Health Care 1/26/2017 6.5 $15.00 $11.65 $8.64 -42.40% S/O
Keane Group FRAC Oil & Gas 1/20/2017 26.8 $19.00 $21.65 $16.11 -15.21% S/O
trivago N.V. TRVG Technology 12/16/2016 26.1 $11.00 $11.85 $19.37 76.09% S/O
WildHorse Resource Development WRD Oil & Gas 12/14/2016 27.5 $15.00 $15.06 $13.08 -12.80% S/O
Athene Holding Ltd. ATH Financials 12/9/2016 27.0 $40.00 $44.05 $49.14 22.85% S/O
Ichor Holdings, Ltd. ICHR Technology 12/9/2016 5.9 $9.00 $9.77 $23.29 158.78% S/O
SenesTech SNES Basic Materials 12/8/2016 1.9 $8.00 $8.16 $6.79 -15.13% S/O
Polar Power POLA Industrials 12/7/2016 2.4 $7.00 $9.00 $5.26 -24.86% S/O
Innovative Industrial Properties IIPR Financials 12/1/2016 3.4 $20.00 $19.15 $17.24 -13.80% S/O
Smart Sand SND Basic Materials 11/4/2016 11.7 $11.00 $10.99 $10.00 -9.09% S/O
GDS Holdings Ltd. GDS Technology 11/2/2016 19.3 $10.00 $10.41 $7.88 -21.20% S/O
Acushnet Holdings GOLF Consumer Goods 10/28/2016 19.3 $17.00 $17.95 $18.94 11.41% S/O
BlackLine BL Technology 10/28/2016 8.6 $17.00 $23.70 $34.74 104.35% S/O
Quantenna Communications QTNA Technology 10/28/2016 6.7 $16.00 $15.50 $19.11 19.44% S/O
Myovant Sciences Ltd. MYOV Health Care 10/27/2016 14.5 $15.00 $13.26 $13.30 -11.33% S/O
ZTO Express (Cayman) ZTO Industrials 10/27/2016 72.1 $19.50 $16.57 $14.33 -26.51% S/O
Ra Pharmaceuticals RARX Health Care 10/26/2016 7.1 $13.00 $13.00 $24.42 87.85% S/O
Forterra FRTA Industrials 10/20/2016 18.4 $18.00 $16.50 $7.98 -55.67% S/O
iRhythm Technologies IRTC Health Care 10/20/2016 6.3 $17.00 $26.05 $34.01 100.06% S/O
CRISPR Therapeutics AG CRSP Health Care 10/19/2016 4.0 $14.00 $14.00 $15.04 7.43% S/O
Mammoth Energy Services TUSK Oil & Gas 10/14/2016 7.8 $15.00 $13.26 $18.73 24.87% S/O
Azure Power Global AZRE Utilities 10/12/2016 3.4 $18.00 $14.60 $16.50 -8.33% S/O
Extraction Oil & Gas XOG Oil & Gas 10/12/2016 33.3 $19.00 $21.85 $15.63 -17.74% S/O
AzurRx BioPharma AZRX Health Care 10/11/2016 1.0 $5.50 $4.98 $3.74 -32.00% S/O
Camping World Holdings CWH Consumer Services 10/7/2016 11.4 $22.00 $22.50 $26.56 20.73% S/O
Everspin Technologies MRAM Technology 10/7/2016 5.0 $8.00 $8.02 $13.02 62.75% S/O
Advanced Disposal Services ADSW Consumer Services 10/6/2016 19.3 $18.00 $0.00 $22.96 27.56% S/O
AquaVenture Holdings WAAS Consumer Goods 10/6/2016 6.5 $18.00 $21.95 $17.11 -4.94% S/O
Coupa Software COUP Technology 10/6/2016 7.4 $18.00 $0.00 $34.62 92.33% S/O
Obalon Therapeutics OBLN Health Care 10/6/2016 5.0 $15.00 $15.00 $9.08 -39.47% S/O
Nutanix NTNX Technology 9/30/2016 14.9 $16.00 $37.00 $19.59 22.44% S/O
Fulgent Genetics FLGT Health Care 9/29/2016 4.2 $9.00 $9.18 $6.13 -31.89% S/O
MedEquities Realty Trust MRT Financials 9/29/2016 19.9 $12.00 $11.59 $11.85 -1.25% S/O
Tabula Rasa HealthCare TRHC Technology 9/29/2016 4.3 $12.00 $14.88 $13.45 12.08% S/O
AC Immune SA ACIU Health Care 9/23/2016 6.0 $11.00 $15.66 $8.91 -19.00% S/O
Apptio APTI Technology 9/23/2016 6.0 $16.00 $22.55 $16.46 2.88% S/O
Gridsum Holding GSUM Technology 9/23/2016 6.7 $13.00 $15.75 $11.85 -8.85% S/O
Valvoline VVV Consumer Goods 9/23/2016 30.0 $22.00 $23.10 $22.23 1.05% S/O
CapStar Financial Holdings CSTR Financials 9/22/2016 2.6 $15.00 $15.90 $18.44 22.93% S/O
e.l.f. Beauty ELF Consumer Goods 9/22/2016 8.3 $17.00 $26.50 $25.33 49.00% S/O
Novan NOVN Health Care 9/21/2016 4.1 $11.00 $18.10 $4.92 -55.27% S/O
The Trade Desk TTD Technology 9/21/2016 4.7 $18.00 $30.10 $52.24 190.22% S/O
Everbridge EVBG Technology 9/16/2016 7.5 $12.00 $15.25 $26.47 120.58% S/O
FB Financial FBK Financials 9/16/2016 5.9 $19.00 $20.75 $36.91 94.26% S/O